Time;durP1;ratioP1;P1;durP2;ratioP2;P2;SDS_P1;SDS_P2;PMS_P1;PMS_P2;Temp;Humidity;BMP_temperature;BMP_pressure;BME280_temperature;BME280_humidity;BME280_pressure;Samples;Min_cycle;Max_cycle;Signal;HPM_P1;HPM_P2
2022/09/01 00:01:50;;;;;;;3.10;2.33;;;17.40;99.90;;;;;;5033185;28;20665;-39
2022/09/01 00:04:20;;;;;;;5.63;2.00;;;17.40;99.90;;;;;;5033659;28;20263;-40
2022/09/01 00:06:47;;;;;;;6.73;2.17;;;17.40;99.90;;;;;;5033889;28;20180;-40
2022/09/01 00:09:16;;;;;;;3.57;1.80;;;17.30;99.90;;;;;;5033237;28;20692;-41
2022/09/01 00:11:45;;;;;;;6.47;2.07;;;17.30;99.90;;;;;;5033979;28;20557;-40
2022/09/01 00:14:11;;;;;;;6.70;2.00;;;17.30;99.90;;;;;;5033176;28;20723;-43
2022/09/01 00:16:36;;;;;;;3.83;1.90;;;17.20;99.90;;;;;;5033218;28;20224;-40
2022/09/01 00:19:03;;;;;;;4.40;2.40;;;17.20;99.90;;;;;;5033183;28;20558;-41
2022/09/01 00:21:33;;;;;;;2.40;1.70;;;17.20;99.90;;;;;;5033181;28;20201;-41
2022/09/01 00:24:00;;;;;;;6.73;2.07;;;17.20;99.90;;;;;;5033424;28;20189;-40
2022/09/01 00:26:26;;;;;;;6.40;1.90;;;17.20;99.90;;;;;;5033172;28;20668;-38
2022/09/01 00:28:51;;;;;;;4.70;2.10;;;17.00;99.90;;;;;;5033087;28;20200;-39
2022/09/01 00:31:18;;;;;;;6.67;1.93;;;17.00;99.90;;;;;;5033281;28;20208;-40
2022/09/01 00:33:45;;;;;;;6.47;2.07;;;17.00;99.90;;;;;;5033369;28;20234;-39
2022/09/01 00:36:10;;;;;;;8.43;2.10;;;17.00;99.90;;;;;;5033016;28;20573;-40
2022/09/01 00:38:36;;;;;;;7.90;2.23;;;16.90;99.90;;;;;;5033266;28;20189;-40
2022/09/01 00:41:02;;;;;;;5.47;2.10;;;16.90;99.90;;;;;;5033143;28;20201;-39
2022/09/01 00:43:55;;;;;;;4.37;2.30;;;16.80;99.90;;;;;;5033283;28;20200;-40
2022/09/01 00:46:35;;;;;;;7.17;2.53;;;16.80;99.90;;;;;;5011738;28;20193;-40
2022/09/01 00:49:04;;;;;;;7.80;2.17;;;16.80;99.90;;;;;;5032922;28;20200;-39
2022/09/01 00:51:30;;;;;;;6.47;2.00;;;16.80;99.90;;;;;;5033153;28;20216;-41
2022/09/01 00:53:57;;;;;;;6.00;2.50;;;16.70;99.90;;;;;;5032921;28;20181;-39
2022/09/01 00:56:23;;;;;;;6.90;3.03;;;16.70;99.90;;;;;;5032867;28;20173;-40
2022/09/01 00:58:51;;;;;;;8.00;2.00;;;16.60;99.90;;;;;;5033313;28;20251;-41
2022/09/01 01:01:17;;;;;;;4.60;2.50;;;16.60;99.90;;;;;;5032684;28;20208;-40
2022/09/01 01:03:46;;;;;;;3.43;2.13;;;16.50;99.90;;;;;;5033073;28;20658;-39
2022/09/01 01:06:14;;;;;;;5.00;2.10;;;16.50;99.90;;;;;;5033050;28;20181;-40
2022/09/01 01:08:59;;;;;;;5.33;2.13;;;16.50;99.90;;;;;;5033001;28;20219;-41
2022/09/01 01:11:27;;;;;;;7.47;2.30;;;16.40;99.90;;;;;;5036355;28;20192;-40
2022/09/01 01:14:04;;;;;;;6.30;2.37;;;16.40;99.90;;;;;;5036735;28;20173;-40
2022/09/01 01:16:30;;;;;;;4.07;2.00;;;16.40;99.90;;;;;;5036327;28;20216;-39
2022/09/01 01:18:56;;;;;;;3.70;1.90;;;16.30;99.90;;;;;;5036581;28;20239;-39
2022/09/01 01:24:28;;;;;;;8.33;2.10;;;16.20;99.90;;;;;;5036846;28;20168;-40
2022/09/01 01:26:58;;;;;;;3.60;1.70;;;16.10;99.90;;;;;;5036430;28;20184;-40
2022/09/01 01:29:27;;;;;;;4.97;2.07;;;16.10;99.90;;;;;;5036050;28;20200;-41
2022/09/01 01:31:53;;;;;;;2.77;1.90;;;16.00;99.90;;;;;;5036060;28;20197;-42
2022/09/01 01:34:21;;;;;;;6.13;1.93;;;16.00;99.90;;;;;;5036056;28;20187;-39
2022/09/01 01:36:47;;;;;;;5.17;1.73;;;16.00;99.90;;;;;;5035975;28;20181;-41
2022/09/01 01:39:15;;;;;;;4.67;2.10;;;16.00;99.90;;;;;;5035999;28;20169;-39
2022/09/01 01:41:47;;;;;;;3.67;1.90;;;15.90;99.90;;;;;;5035870;28;20696;-40
2022/09/01 01:44:15;;;;;;;1.63;1.50;;;15.90;99.90;;;;;;5036189;28;20166;-40
2022/09/01 01:46:44;;;;;;;5.00;1.80;;;15.80;99.90;;;;;;5036045;28;20180;-39
2022/09/01 01:49:12;;;;;;;4.00;1.80;;;15.80;99.90;;;;;;5035745;28;20664;-41
2022/09/01 01:51:38;;;;;;;2.03;1.53;;;15.70;99.90;;;;;;5018026;28;20196;-41
2022/09/01 01:54:06;;;;;;;4.80;1.77;;;15.60;99.90;;;;;;5035767;28;20174;-40
2022/09/01 01:56:35;;;;;;;6.30;2.13;;;15.60;99.90;;;;;;5035941;28;20239;-41
2022/09/01 01:59:01;;;;;;;3.10;1.80;;;15.50;99.90;;;;;;5035549;28;20181;-39
2022/09/01 02:01:30;;;;;;;7.07;2.20;;;15.50;99.90;;;;;;5035629;28;20208;-43
2022/09/01 02:03:57;;;;;;;5.30;2.30;;;15.50;99.90;;;;;;5035806;28;20189;-43
2022/09/01 02:06:25;;;;;;;5.67;1.93;;;15.50;99.90;;;;;;5035874;28;20173;-43
2022/09/01 02:08:55;;;;;;;6.77;2.27;;;15.30;99.90;;;;;;5035426;28;20240;-43
2022/09/01 02:11:21;;;;;;;6.33;2.30;;;15.40;99.90;;;;;;5035889;28;20208;-43
2022/09/01 02:13:48;;;;;;;9.57;3.10;;;15.30;99.90;;;;;;5036172;28;20181;-43
2022/09/01 02:16:15;;;;;;;8.77;2.33;;;15.30;99.90;;;;;;5035220;28;20196;-43
2022/09/01 02:18:46;;;;;;;15.17;2.40;;;15.20;99.90;;;;;;5035110;28;20189;-42
2022/09/01 02:21:18;;;;;;;5.50;2.60;;;15.20;99.90;;;;;;5035126;28;20221;-44
2022/09/01 02:23:49;;;;;;;11.30;2.33;;;15.20;99.90;;;;;;5035130;28;20674;-42
2022/09/01 02:26:17;;;;;;;3.23;2.10;;;15.10;99.90;;;;;;5035384;28;20541;-43
2022/09/01 02:28:48;;;;;;;11.40;2.70;;;15.00;99.90;;;;;;5034930;28;20243;-43
2022/09/01 02:31:13;;;;;;;3.73;2.07;;;15.00;99.90;;;;;;5034947;28;20197;-44
2022/09/01 02:33:44;;;;;;;11.63;2.63;;;15.00;99.90;;;;;;5035251;28;20177;-44
2022/09/01 02:36:14;;;;;;;6.83;2.40;;;15.00;99.90;;;;;;5035283;28;20172;-41
2022/09/01 02:38:44;;;;;;;5.90;2.33;;;14.90;99.90;;;;;;5035282;28;20181;-44
2022/09/01 02:41:11;;;;;;;9.07;2.47;;;14.90;99.90;;;;;;5035212;28;20344;-41
2022/09/01 02:43:38;;;;;;;7.77;2.80;;;15.00;99.90;;;;;;5034767;28;20189;-43
2022/09/01 02:46:05;;;;;;;8.40;2.23;;;15.00;99.90;;;;;;5035046;28;20196;-44
2022/09/01 02:48:40;;;;;;;8.03;2.10;;;15.00;99.90;;;;;;5034911;28;20217;-44
2022/09/01 02:51:09;;;;;;;4.63;1.97;;;15.00;99.90;;;;;;5034864;28;20280;-43
2022/09/01 02:53:38;;;;;;;6.60;2.30;;;15.00;99.90;;;;;;5034650;28;20177;-44
2022/09/01 02:56:08;;;;;;;7.00;2.20;;;14.90;99.90;;;;;;5016833;28;20554;-43
2022/09/01 02:58:39;;;;;;;8.27;2.47;;;14.80;99.90;;;;;;5034775;28;20161;-42
2022/09/01 03:01:20;;;;;;;9.63;2.73;;;14.80;99.90;;;;;;5034426;28;20209;-44
2022/09/01 03:03:47;;;;;;;5.00;2.27;;;14.70;99.90;;;;;;5034710;28;20652;-44
2022/09/01 03:06:13;;;;;;;6.70;2.80;;;14.60;99.90;;;;;;5034394;28;20664;-44
2022/09/01 03:08:39;;;;;;;5.57;2.23;;;14.70;99.90;;;;;;5034517;28;20212;-43
2022/09/01 03:11:10;;;;;;;6.20;2.83;;;14.60;99.90;;;;;;5034196;28;20735;-44
2022/09/01 03:13:37;;;;;;;7.87;2.40;;;14.60;99.90;;;;;;5034624;28;20146;-44
2022/09/01 03:16:04;;;;;;;10.37;2.43;;;14.60;99.90;;;;;;5034843;28;20243;-44
2022/09/01 03:18:30;;;;;;;6.87;2.63;;;14.60;99.90;;;;;;5035697;28;20181;-44
2022/09/01 03:20:56;;;;;;;8.83;2.47;;;14.60;99.90;;;;;;5035456;28;20576;-42
2022/09/01 03:23:24;;;;;;;6.93;2.47;;;14.60;99.90;;;;;;5034538;28;20641;-43
2022/09/01 03:25:50;;;;;;;8.30;2.80;;;14.50;99.90;;;;;;5034080;28;20218;-43
2022/09/01 03:28:16;;;;;;;21.77;2.93;;;14.50;99.90;;;;;;5033983;28;20680;-44
2022/09/01 03:30:49;;;;;;;7.20;2.37;;;14.50;99.90;;;;;;5033852;28;20645;-44
2022/09/01 03:33:16;;;;;;;10.53;3.20;;;14.40;99.90;;;;;;5033436;28;20172;-42
2022/09/01 03:35:42;;;;;;;11.03;2.70;;;14.40;99.90;;;;;;5034181;28;20177;-42
2022/09/01 03:38:08;;;;;;;5.10;2.30;;;14.30;99.90;;;;;;5033924;28;20216;-43
2022/09/01 03:40:35;;;;;;;9.23;2.47;;;14.30;99.90;;;;;;5034015;28;20281;-44
2022/09/01 03:43:03;;;;;;;7.10;2.30;;;14.30;99.90;;;;;;5033686;28;20212;-43
2022/09/01 03:45:29;;;;;;;3.90;2.37;;;14.30;99.90;;;;;;5033576;28;20195;-44
2022/09/01 03:47:55;;;;;;;7.27;2.60;;;14.30;99.90;;;;;;5033569;28;20677;-43
2022/09/01 03:50:23;;;;;;;8.73;2.50;;;14.20;99.90;;;;;;5033766;28;20207;-44
2022/09/01 03:52:52;;;;;;;12.33;2.43;;;14.20;99.90;;;;;;5015954;28;20247;-43
2022/09/01 03:55:26;;;;;;;6.90;2.33;;;14.20;99.90;;;;;;5033606;28;20179;-42
2022/09/01 03:57:54;;;;;;;8.40;2.83;;;14.20;99.90;;;;;;5033826;28;20211;-43
2022/09/01 04:00:22;;;;;;;5.13;2.10;;;14.10;99.90;;;;;;5033738;28;20188;-44
2022/09/01 04:02:55;;;;;;;8.03;2.87;;;14.10;99.90;;;;;;5033471;28;20287;-43
2022/09/01 04:05:21;;;;;;;7.43;2.10;;;14.10;99.90;;;;;;5033453;28;20160;-44
2022/09/01 04:07:49;;;;;;;8.47;2.40;;;14.10;99.90;;;;;;5033598;28;20215;-43
2022/09/01 04:10:16;;;;;;;7.47;2.57;;;14.10;99.90;;;;;;5033599;28;20177;-44
2022/09/01 04:12:42;;;;;;;5.63;2.50;;;14.00;99.90;;;;;;5033574;28;20201;-43
2022/09/01 04:15:08;;;;;;;8.23;2.60;;;14.00;99.90;;;;;;5033936;28;20193;-44
2022/09/01 04:20:19;;;;;;;8.13;2.77;;;13.90;99.90;;;;;;5033592;28;20593;-44
2022/09/01 04:22:49;;;;;;;5.50;2.63;;;13.80;99.90;;;;;;5033139;28;20242;-44
2022/09/01 04:25:17;;;;;;;4.93;2.43;;;13.80;99.90;;;;;;5033536;28;20184;-43
2022/09/01 04:27:43;;;;;;;4.47;2.27;;;13.80;99.90;;;;;;5034181;28;20238;-43
2022/09/01 04:30:09;;;;;;;9.20;2.43;;;13.80;99.90;;;;;;5033556;28;20196;-44
2022/09/01 04:32:39;;;;;;;6.97;2.60;;;13.70;99.90;;;;;;5033224;28;20645;-43
2022/09/01 04:35:06;;;;;;;10.07;2.50;;;13.70;99.90;;;;;;5033563;28;20188;-43
2022/09/01 04:37:34;;;;;;;5.23;2.50;;;13.70;99.90;;;;;;5033487;28;20191;-42
2022/09/01 04:39:59;;;;;;;9.40;2.80;;;13.60;99.90;;;;;;5033778;28;20189;-43
2022/09/01 04:42:27;;;;;;;6.77;2.23;;;13.60;99.90;;;;;;5033453;28;20271;-43
2022/09/01 04:44:56;;;;;;;6.20;2.40;;;13.60;99.90;;;;;;5035130;28;20184;-41
2022/09/01 04:47:28;;;;;;;4.40;2.10;;;13.60;99.90;;;;;;5037267;28;20251;-43
2022/09/01 04:49:57;;;;;;;8.13;3.03;;;13.50;99.90;;;;;;5037118;28;20681;-44
2022/09/01 04:52:23;;;;;;;10.87;2.60;;;13.50;99.90;;;;;;5036856;28;20204;-43
2022/09/01 04:54:49;;;;;;;7.23;2.47;;;13.50;99.90;;;;;;5036912;28;20181;-43
2022/09/01 04:57:15;;;;;;;12.03;2.40;;;13.40;99.90;;;;;;5037084;28;20255;-42
2022/09/01 04:59:42;;;;;;;5.27;2.40;;;13.40;99.90;;;;;;5037124;28;20565;-43
2022/09/01 05:02:08;;;;;;;3.10;2.07;;;13.40;99.90;;;;;;5037239;28;20235;-44
2022/09/01 05:04:34;;;;;;;5.73;3.03;;;13.40;99.90;;;;;;5036804;28;20572;-44
2022/09/01 05:07:01;;;;;;;6.53;2.10;;;13.30;99.90;;;;;;5036829;28;20227;-43
2022/09/01 05:09:34;;;;;;;4.77;2.00;;;13.30;99.90;;;;;;5037148;28;20260;-44
2022/09/01 05:12:09;;;;;;;6.37;2.50;;;13.20;99.90;;;;;;5037303;28;20196;-44
2022/09/01 05:14:41;;;;;;;7.87;2.20;;;13.20;99.90;;;;;;5036674;28;20165;-44
2022/09/01 05:17:09;;;;;;;7.27;2.43;;;13.20;99.90;;;;;;5036721;28;20288;-44
2022/09/01 05:19:46;;;;;;;5.90;2.00;;;13.20;99.90;;;;;;5036800;28;20185;-44
2022/09/01 05:22:14;;;;;;;7.07;2.30;;;13.20;99.90;;;;;;5018578;28;20200;-44
2022/09/01 05:24:40;;;;;;;4.93;2.40;;;13.10;99.90;;;;;;5036566;28;20191;-44
2022/09/01 05:27:06;;;;;;;12.10;2.47;;;13.10;99.90;;;;;;5036686;28;20570;-43
2022/09/01 05:29:33;;;;;;;7.03;2.80;;;13.00;99.90;;;;;;5036178;28;20197;-43
2022/09/01 05:31:59;;;;;;;9.13;2.60;;;13.10;99.90;;;;;;5036201;28;20740;-43
2022/09/01 05:34:25;;;;;;;9.93;2.80;;;13.10;99.90;;;;;;5036453;28;20586;-42
2022/09/01 05:36:56;;;;;;;8.40;2.60;;;13.10;99.90;;;;;;5036179;28;20185;-43
2022/09/01 05:39:21;;;;;;;7.97;2.33;;;13.20;99.90;;;;;;5036526;28;20173;-44
2022/09/01 05:41:48;;;;;;;7.47;2.30;;;13.20;99.90;;;;;;5035920;28;20289;-44
2022/09/01 05:44:15;;;;;;;6.63;2.40;;;13.20;99.90;;;;;;5036200;28;20642;-43
2022/09/01 05:46:43;;;;;;;8.63;3.00;;;13.20;99.90;;;;;;5036149;28;20212;-44
2022/09/01 05:49:15;;;;;;;6.40;2.50;;;13.30;99.90;;;;;;5035692;28;20760;-42
2022/09/01 05:51:48;;;;;;;13.47;3.03;;;13.40;99.90;;;;;;5035724;28;20690;-43
2022/09/01 05:54:15;;;;;;;10.60;2.90;;;13.40;99.90;;;;;;5036319;28;20180;-43
2022/09/01 05:56:43;;;;;;;7.47;2.90;;;13.50;99.90;;;;;;5035197;28;20177;-43
2022/09/01 05:59:10;;;;;;;12.23;3.00;;;13.60;99.90;;;;;;5035799;28;20173;-44
2022/09/01 06:01:39;;;;;;;6.93;3.57;;;13.70;99.90;;;;;;5035818;28;20247;-43
2022/09/01 06:04:06;;;;;;;8.93;2.47;;;13.90;99.90;;;;;;5035697;28;20193;-43
2022/09/01 06:06:45;;;;;;;7.10;2.80;;;14.10;99.90;;;;;;5035964;28;20181;-42
2022/09/01 06:09:13;;;;;;;7.50;3.03;;;14.20;99.90;;;;;;5035861;28;20220;-44
2022/09/01 06:11:39;;;;;;;6.47;2.60;;;14.40;99.90;;;;;;5035657;28;20201;-44
2022/09/01 06:14:07;;;;;;;9.20;2.87;;;14.50;99.90;;;;;;5035616;28;20675;-44
2022/09/01 06:16:34;;;;;;;10.67;2.87;;;14.50;99.90;;;;;;5035341;28;20232;-44
2022/09/01 06:19:00;;;;;;;6.93;3.20;;;14.70;99.90;;;;;;5035248;28;20708;-43
2022/09/01 06:21:27;;;;;;;9.93;2.67;;;14.80;99.90;;;;;;5035494;28;20198;-43
2022/09/01 06:23:54;;;;;;;4.53;2.30;;;14.90;99.90;;;;;;5035550;28;20189;-43
2022/09/01 06:26:22;;;;;;;9.57;2.50;;;15.00;99.90;;;;;;5035695;28;20536;-42
2022/09/01 06:28:53;;;;;;;5.77;2.63;;;15.10;99.90;;;;;;5035090;28;20740;-44
2022/09/01 06:31:33;;;;;;;8.30;2.47;;;15.30;99.90;;;;;;5035300;28;20206;-42
2022/09/01 06:34:02;;;;;;;5.33;2.67;;;15.40;99.90;;;;;;5035067;28;20177;-44
2022/09/01 06:36:31;;;;;;;11.40;3.20;;;15.50;99.90;;;;;;5035253;28;20173;-43
2022/09/01 06:39:00;;;;;;;11.13;3.30;;;15.60;99.90;;;;;;5035272;28;20556;-44
2022/09/01 06:41:27;;;;;;;3.87;2.17;;;15.70;99.90;;;;;;5034806;28;20687;-44
2022/09/01 06:43:53;;;;;;;3.93;2.50;;;15.90;99.90;;;;;;5035181;28;20189;-43
2022/09/01 06:46:22;;;;;;;7.77;2.60;;;16.00;99.90;;;;;;5034959;28;20181;-43
2022/09/01 06:48:49;;;;;;;6.10;2.63;;;16.20;99.90;;;;;;5035364;28;20219;-43
2022/09/01 06:51:17;;;;;;;6.07;2.53;;;16.30;99.90;;;;;;5034976;28;20263;-44
2022/09/01 06:53:44;;;;;;;4.37;2.50;;;16.40;99.90;;;;;;5035338;28;20173;-44
2022/09/01 06:56:12;;;;;;;7.03;2.17;;;16.60;99.90;;;;;;5034699;28;20175;-42
2022/09/01 06:58:43;;;;;;;12.07;2.77;;;16.70;99.90;;;;;;5034925;28;20216;-43
2022/09/01 07:01:14;;;;;;;9.67;2.53;;;16.80;99.90;;;;;;5034710;28;20212;-43
2022/09/01 07:03:40;;;;;;;7.13;2.30;;;17.00;99.90;;;;;;5034758;28;20299;-43
2022/09/01 07:06:08;;;;;;;9.37;2.80;;;17.10;99.90;;;;;;5035363;28;20534;-42
2022/09/01 07:08:38;;;;;;;12.47;2.93;;;17.20;99.90;;;;;;5033427;28;20231;-43
2022/09/01 07:11:06;;;;;;;10.97;2.73;;;17.30;99.90;;;;;;5034383;28;20568;-42
2022/09/01 07:13:34;;;;;;;16.23;3.20;;;17.40;99.90;;;;;;5034500;28;20183;-43
2022/09/01 07:16:01;;;;;;;10.67;3.27;;;17.50;99.90;;;;;;5034163;28;20203;-42
2022/09/01 07:18:27;;;;;;;12.87;2.80;;;17.60;99.90;;;;;;5034851;28;20200;-44
2022/09/01 07:20:54;;;;;;;12.33;2.77;;;17.70;99.90;;;;;;5034258;28;20204;-43
2022/09/01 07:23:21;;;;;;;10.97;2.60;;;17.80;99.90;;;;;;5034324;28;20201;-43
2022/09/01 07:25:50;;;;;;;6.87;2.00;;;17.90;99.90;;;;;;5034002;28;20172;-44
2022/09/01 07:28:17;;;;;;;9.03;2.23;;;18.00;99.90;;;;;;5033816;28;20300;-43
2022/09/01 07:30:49;;;;;;;13.63;2.70;;;18.10;99.90;;;;;;5034080;28;20169;-44
2022/09/01 07:33:19;;;;;;;12.70;2.67;;;18.30;99.90;;;;;;5034416;28;20247;-45
2022/09/01 07:35:46;;;;;;;5.30;1.83;;;18.50;99.90;;;;;;5034221;28;20191;-43
2022/09/01 07:38:12;;;;;;;7.70;2.10;;;18.70;99.90;;;;;;5033793;28;20172;-43
2022/09/01 07:40:39;;;;;;;6.10;1.60;;;18.90;99.90;;;;;;5033972;28;20230;-43
2022/09/01 07:43:13;;;;;;;2.70;1.57;;;19.10;99.90;;;;;;5034048;28;20196;-42
2022/09/01 07:45:45;;;;;;;3.83;1.80;;;19.20;99.90;;;;;;5033716;28;20180;-45
2022/09/01 07:48:13;;;;;;;1.60;1.33;;;19.40;99.90;;;;;;5033746;28;20243;-43
2022/09/01 07:50:46;;;;;;;1.23;1.17;;;19.50;99.90;;;;;;5033797;28;20181;-42
2022/09/01 07:53:31;;;;;;;2.27;1.30;;;19.70;99.90;;;;;;5033792;28;20172;-43
2022/09/01 07:56:00;;;;;;;3.00;1.57;;;19.80;99.90;;;;;;5033522;28;20649;-43
2022/09/01 07:58:28;;;;;;;1.50;1.30;;;19.90;99.90;;;;;;5033756;28;20172;-43
2022/09/01 08:00:54;;;;;;;2.13;1.27;;;19.90;99.90;;;;;;5033329;28;20211;-43
2022/09/01 08:03:23;;;;;;;6.07;1.33;;;20.00;99.90;;;;;;5033334;28;20188;-44
2022/09/01 08:05:52;;;;;;;3.37;1.30;;;20.10;99.90;;;;;;5033368;28;20275;-44
2022/09/01 08:08:19;;;;;;;5.30;1.67;;;20.30;99.90;;;;;;5015529;28;20209;-43
2022/09/01 08:10:45;;;;;;;1.70;1.33;;;20.50;99.90;;;;;;5033491;28;20192;-45
2022/09/01 08:13:11;;;;;;;1.40;1.30;;;20.60;99.90;;;;;;5033566;28;20176;-43
2022/09/01 08:15:41;;;;;;;2.27;1.60;;;20.60;99.90;;;;;;5015400;28;20232;-44
2022/09/01 08:18:07;;;;;;;2.27;1.77;;;20.70;99.90;;;;;;5033316;28;20203;-44
2022/09/01 08:20:38;;;;;;;2.73;1.50;;;20.90;99.90;;;;;;5033434;28;20188;-43
2022/09/01 08:23:04;;;;;;;2.57;1.67;;;20.90;99.90;;;;;;5033417;28;20168;-45
2022/09/01 08:25:34;;;;;;;2.33;1.53;;;21.00;99.90;;;;;;5033164;28;20698;-45
2022/09/01 08:28:01;;;;;;;6.37;1.73;;;21.10;99.90;;;;;;5033045;28;20200;-43
2022/09/01 08:30:27;;;;;;;4.27;1.30;;;21.10;99.90;;;;;;5015435;28;20184;-44
2022/09/01 08:32:52;;;;;;;4.90;1.50;;;21.20;99.90;;;;;;5015262;28;20677;-44
2022/09/01 08:35:18;;;;;;;2.30;1.50;;;21.30;99.90;;;;;;5033040;28;20196;-43
2022/09/01 08:37:44;;;;;;;3.00;1.70;;;21.40;99.90;;;;;;5033351;28;20210;-44
2022/09/01 08:40:16;;;;;;;1.57;1.37;;;21.60;99.90;;;;;;5015336;28;20266;-44
2022/09/01 08:43:01;;;;;;;1.80;1.50;;;21.60;99.90;;;;;;5033195;28;20546;-44
2022/09/01 08:45:41;;;;;;;4.87;1.60;;;21.80;99.90;;;;;;5033236;28;20188;-44
2022/09/01 08:48:18;;;;;;;2.37;1.70;;;21.80;99.90;;;;;;5033023;28;20201;-42
2022/09/01 08:50:51;;;;;;;4.00;1.60;;;21.90;99.90;;;;;;5032887;28;20180;-43
2022/09/01 08:53:39;;;;;;;4.30;1.80;;;21.90;99.90;;;;;;5018472;28;20247;-40
2022/09/01 08:56:08;;;;;;;6.03;1.27;;;22.10;99.90;;;;;;5033196;28;20626;-40
2022/09/01 08:58:34;;;;;;;4.53;1.80;;;22.20;99.90;;;;;;5033077;28;20552;-40
2022/09/01 09:01:08;;;;;;;3.83;1.63;;;22.10;99.90;;;;;;5033035;28;20207;-40
2022/09/01 09:03:39;;;;;;;2.00;1.40;;;22.10;99.90;;;;;;5032773;28;20165;-40
2022/09/01 09:06:13;;;;;;;5.13;1.83;;;22.00;99.90;;;;;;5033371;28;20215;-41
2022/09/01 09:08:54;;;;;;;3.80;1.40;;;22.10;99.90;;;;;;5032788;28;20665;-43
2022/09/01 09:11:51;;;;;;;2.30;1.60;;;22.20;99.90;;;;;;5032602;28;20689;-40
2022/09/01 09:14:30;;;;;;;2.73;1.30;;;22.40;99.90;;;;;;4992525;28;20185;-40
2022/09/01 09:16:56;;;;;;;2.83;1.43;;;22.40;99.90;;;;;;5032733;28;20292;-39
2022/09/01 09:19:31;;;;;;;6.97;1.90;;;22.50;99.90;;;;;;5032996;28;20272;-39
2022/09/01 09:21:59;;;;;;;4.57;1.67;;;22.60;99.90;;;;;;5032890;28;20204;-41
2022/09/01 09:24:48;;;;;;;3.27;1.30;;;22.80;99.90;;;;;;5032854;28;20185;-39
2022/09/01 09:27:23;;;;;;;3.60;1.20;;;22.80;99.90;;;;;;5032982;28;20165;-40
2022/09/01 09:29:52;;;;;;;1.93;1.40;;;22.80;99.90;;;;;;5032952;28;20180;-39
2022/09/01 09:32:19;;;;;;;1.97;1.10;;;22.70;99.90;;;;;;5036094;28;20193;-41
2022/09/01 09:34:45;;;;;;;3.50;1.47;;;22.70;99.90;;;;;;5036154;28;20176;-40
2022/09/01 09:37:26;;;;;;;2.57;1.53;;;22.80;99.90;;;;;;5036279;28;20183;-40
2022/09/01 09:40:10;;;;;;;3.00;1.40;;;22.90;99.90;;;;;;5036247;28;20176;-40
2022/09/01 09:42:38;;;;;;;4.10;1.50;;;23.00;99.90;;;;;;5039890;28;20243;-42
2022/09/01 09:45:12;;;;;;;2.37;1.53;;;23.10;99.90;;;;;;5041420;28;20567;-46
2022/09/01 09:47:43;;;;;;;1.47;1.10;;;23.20;99.90;;;;;;5042649;28;20173;-45
2022/09/01 09:50:13;;;;;;;7.10;2.00;;;23.10;99.90;;;;;;5036757;28;20153;-46
2022/09/01 09:52:39;;;;;;;2.23;1.30;;;23.20;99.90;;;;;;5037232;28;20204;-42
2022/09/01 09:55:22;;;;;;;4.23;1.30;;;23.30;99.90;;;;;;5017983;28;20183;-40
2022/09/01 09:57:49;;;;;;;4.73;1.20;;;23.50;99.90;;;;;;5036041;28;20165;-39
2022/09/01 10:00:34;;;;;;;2.77;1.10;;;23.60;99.90;;;;;;5035676;28;20223;-40
2022/09/01 10:03:07;;;;;;;1.90;1.00;;;23.80;99.90;;;;;;5035647;28;20542;-39
2022/09/01 10:05:50;;;;;;;1.80;1.23;;;23.80;99.90;;;;;;5035544;28;20162;-39
2022/09/01 10:08:33;;;;;;;2.73;1.80;;;23.80;99.90;;;;;;5035406;28;20570;-38
2022/09/01 10:10:59;;;;;;;5.10;1.47;;;23.90;99.90;;;;;;5035764;28;20192;-38
2022/09/01 10:13:29;;;;;;;4.73;1.53;;;24.00;99.90;;;;;;5035730;28;20180;-41
2022/09/01 10:15:58;;;;;;;1.30;1.10;;;24.10;99.90;;;;;;5035310;28;20247;-39
2022/09/01 10:18:45;;;;;;;4.23;1.27;;;24.10;99.90;;;;;;5019207;28;20223;-39
2022/09/01 10:21:13;;;;;;;3.67;1.23;;;24.00;99.90;;;;;;5035486;28;20204;-37
2022/09/01 10:23:40;;;;;;;6.57;1.47;;;23.90;99.90;;;;;;5035202;28;20181;-40
2022/09/01 10:26:17;;;;;;;2.43;1.00;;;23.80;99.90;;;;;;5035424;28;20185;-40
2022/09/01 10:28:51;;;;;;;2.07;1.17;;;23.70;99.90;;;;;;5035674;28;20216;-37
2022/09/01 10:31:19;;;;;;;1.70;1.03;;;23.70;99.90;;;;;;5035274;28;20216;-39
2022/09/01 10:33:45;;;;;;;1.13;0.97;;;23.60;99.20;;;;;;5035006;28;20168;-40
2022/09/01 10:36:12;;;;;;;4.50;1.37;;;23.50;99.10;;;;;;5035291;28;20574;-38
2022/09/01 10:38:38;;;;;;;1.97;1.33;;;23.40;98.40;;;;;;5034992;28;20264;-37
2022/09/01 10:41:06;;;;;;;1.70;0.87;;;23.30;98.80;;;;;;5034754;28;20275;-38
2022/09/01 10:43:50;;;;;;;3.20;1.37;;;23.20;99.50;;;;;;5034726;28;20177;-39
2022/09/01 10:46:18;;;;;;;1.97;1.00;;;23.30;99.20;;;;;;5035186;28;20633;-39
2022/09/01 10:48:46;;;;;;;1.20;1.10;;;23.40;99.40;;;;;;5034831;28;20738;-40
2022/09/01 10:51:12;;;;;;;2.00;1.23;;;23.50;99.90;;;;;;5034588;28;20205;-40
2022/09/01 10:53:40;;;;;;;1.00;0.90;;;23.60;97.20;;;;;;5017339;28;20280;-39
2022/09/01 10:56:34;;;;;;;3.13;1.03;;;23.70;97.50;;;;;;5034622;28;20191;-39
2022/09/01 10:59:10;;;;;;;3.97;1.10;;;23.70;97.60;;;;;;5034547;28;20172;-39
2022/09/01 11:01:39;;;;;;;2.00;1.00;;;23.60;97.80;;;;;;5034746;28;20289;-41
2022/09/01 11:04:05;;;;;;;1.47;1.10;;;23.60;97.20;;;;;;5034417;28;20181;-41
2022/09/01 11:06:42;;;;;;;2.87;1.00;;;23.50;97.40;;;;;;5034656;28;20200;-41
2022/09/01 11:09:33;;;;;;;1.50;1.00;;;23.60;97.00;;;;;;5034389;28;20247;-39
2022/09/01 11:12:11;;;;;;;1.27;1.00;;;23.70;97.80;;;;;;5034332;28;20279;-39
2022/09/01 11:14:49;;;;;;;2.83;1.03;;;23.70;97.50;;;;;;5034553;28;20161;-38
2022/09/01 11:17:21;;;;;;;1.30;1.00;;;23.70;96.70;;;;;;5034420;28;20193;-40
2022/09/01 11:20:11;;;;;;;4.80;1.10;;;23.80;95.90;;;;;;5034357;28;20192;-40
2022/09/01 11:22:57;;;;;;;2.40;1.10;;;23.80;96.00;;;;;;5034075;28;20196;-41
2022/09/01 11:25:47;;;;;;;1.53;1.10;;;24.10;97.10;;;;;;5034437;28;20636;-40
2022/09/01 11:28:15;;;;;;;3.27;1.00;;;24.30;96.60;;;;;;5034720;28;20193;-38
2022/09/01 11:31:01;;;;;;;1.67;1.00;;;24.40;96.00;;;;;;5033973;28;20226;-40
2022/09/01 11:33:54;;;;;;;4.80;1.10;;;24.60;98.00;;;;;;5034244;28;20525;-40
2022/09/01 11:36:30;;;;;;;3.30;0.83;;;24.80;98.50;;;;;;5034168;28;20169;-40
2022/09/01 11:39:35;;;;;;;0.80;0.80;;;25.00;97.90;;;;;;5033973;28;20538;-40
2022/09/01 11:42:15;;;;;;;2.13;1.03;;;25.20;96.90;;;;;;5016289;28;20208;-40
2022/09/01 11:44:56;;;;;;;1.10;1.00;;;25.40;96.10;;;;;;5016093;28;20521;-39
2022/09/01 11:47:32;;;;;;;3.50;1.30;;;25.50;95.40;;;;;;5033597;28;20165;-41
2022/09/01 11:50:02;;;;;;;1.87;1.00;;;25.50;95.00;;;;;;5033893;28;20563;-41
2022/09/01 11:52:33;;;;;;;1.30;0.80;;;25.40;96.10;;;;;;5033456;28;20193;-40
2022/09/01 11:54:59;;;;;;;1.90;1.00;;;25.50;95.80;;;;;;5033435;28;20165;-38
2022/09/01 11:57:28;;;;;;;3.40;1.20;;;25.30;93.90;;;;;;5033407;28;20203;-41
2022/09/01 11:59:56;;;;;;;2.37;1.33;;;25.10;94.80;;;;;;5015738;28;20181;-39
2022/09/01 12:02:32;;;;;;;1.30;1.20;;;25.10;96.60;;;;;;5033383;28;20197;-39
2022/09/01 12:04:59;;;;;;;1.47;1.10;;;25.20;96.40;;;;;;5033626;28;20184;-40
2022/09/01 12:07:46;;;;;;;3.10;1.30;;;25.30;97.50;;;;;;5033409;28;20176;-39
2022/09/01 12:10:30;;;;;;;2.00;1.00;;;25.40;97.10;;;;;;5033450;28;20180;-39
2022/09/01 12:13:01;;;;;;;2.90;1.73;;;25.40;95.10;;;;;;5033609;28;20228;-40
2022/09/01 12:15:27;;;;;;;1.57;1.10;;;25.20;95.40;;;;;;5033273;28;20192;-40
2022/09/01 12:18:17;;;;;;;2.33;1.40;;;25.30;96.80;;;;;;5033294;28;20594;-41
2022/09/01 12:20:44;;;;;;;2.67;1.50;;;25.30;96.30;;;;;;5033524;28;20169;-41
2022/09/01 12:23:27;;;;;;;2.13;1.10;;;25.30;97.80;;;;;;5033252;28;20196;-39
2022/09/01 12:25:55;;;;;;;1.00;0.90;;;25.30;97.20;;;;;;5033228;28;20231;-41
2022/09/01 12:28:23;;;;;;;1.10;1.00;;;25.40;97.30;;;;;;5033175;28;20300;-40
2022/09/01 12:30:50;;;;;;;3.97;1.10;;;25.60;98.20;;;;;;5033250;28;20173;-41
2022/09/01 12:33:18;;;;;;;1.20;1.00;;;25.80;97.90;;;;;;5033347;28;20207;-40
2022/09/01 12:35:44;;;;;;;2.37;1.20;;;25.90;93.20;;;;;;5033355;28;20184;-40
2022/09/01 12:38:19;;;;;;;1.43;1.10;;;25.90;95.90;;;;;;5033101;28;20184;-40
2022/09/01 12:40:52;;;;;;;4.23;0.90;;;26.10;95.20;;;;;;5032889;28;20648;-40
2022/09/01 12:43:36;;;;;;;1.40;1.13;;;26.20;93.50;;;;;;5033384;28;20165;-40
2022/09/01 12:46:03;;;;;;;1.37;1.10;;;26.20;95.00;;;;;;5033235;28;20629;-41
2022/09/01 12:48:31;;;;;;;1.80;1.20;;;26.10;94.90;;;;;;5032867;28;20685;-40
2022/09/01 12:51:04;;;;;;;1.13;0.90;;;26.00;93.80;;;;;;5032915;28;20224;-40
2022/09/01 12:53:32;;;;;;;2.63;1.33;;;26.00;95.50;;;;;;5033136;28;20574;-41
2022/09/01 12:56:05;;;;;;;3.93;1.23;;;26.00;94.20;;;;;;5033293;28;20177;-41
2022/09/01 12:58:31;;;;;;;1.63;1.53;;;26.10;92.40;;;;;;5033154;28;20265;-41
2022/09/01 13:01:13;;;;;;;6.97;1.07;;;26.30;95.40;;;;;;5032809;28;20272;-40
2022/09/01 13:03:39;;;;;;;1.37;1.20;;;26.40;96.90;;;;;;5032857;28;20168;-40
2022/09/01 13:06:05;;;;;;;1.77;1.03;;;26.70;94.30;;;;;;5034449;28;20174;-40
2022/09/01 13:08:33;;;;;;;2.23;1.33;;;26.80;95.50;;;;;;5036829;28;20212;-41